sensor_id;sensor_type;location;lat;lon;timestamp;P1;durP1;ratioP1;P2;durP2;ratioP2
12312;SDS011;6220;53.580;9.758;2023-03-17T00:01:12;3.57;;;1.70;;
12312;SDS011;6220;53.580;9.758;2023-03-17T00:03:41;2.37;;;1.70;;
12312;SDS011;6220;53.580;9.758;2023-03-17T00:06:13;3.80;;;1.87;;
12312;SDS011;6220;53.580;9.758;2023-03-17T00:08:40;4.07;;;1.70;;
12312;SDS011;6220;53.580;9.758;2023-03-17T00:11:09;3.17;;;1.90;;
12312;SDS011;6220;53.580;9.758;2023-03-17T00:13:37;4.07;;;2.00;;
12312;SDS011;6220;53.580;9.758;2023-03-17T00:16:03;2.23;;;1.50;;
12312;SDS011;6220;53.580;9.758;2023-03-17T00:18:31;2.50;;;1.80;;
12312;SDS011;6220;53.580;9.758;2023-03-17T00:20:59;3.00;;;1.60;;
12312;SDS011;6220;53.580;9.758;2023-03-17T00:23:24;2.63;;;1.87;;
12312;SDS011;6220;53.580;9.758;2023-03-17T00:25:50;5.37;;;2.00;;
12312;SDS011;6220;53.580;9.758;2023-03-17T00:28:21;2.53;;;1.80;;
12312;SDS011;6220;53.580;9.758;2023-03-17T00:30:51;4.67;;;1.93;;
12312;SDS011;6220;53.580;9.758;2023-03-17T00:33:21;1.90;;;1.63;;
12312;SDS011;6220;53.580;9.758;2023-03-17T00:35:49;3.40;;;1.77;;
12312;SDS011;6220;53.580;9.758;2023-03-17T00:38:15;5.13;;;2.10;;
12312;SDS011;6220;53.580;9.758;2023-03-17T00:40:41;3.10;;;2.10;;
12312;SDS011;6220;53.580;9.758;2023-03-17T00:43:08;2.53;;;2.00;;
12312;SDS011;6220;53.580;9.758;2023-03-17T00:45:34;5.40;;;2.40;;
12312;SDS011;6220;53.580;9.758;2023-03-17T00:47:59;2.93;;;1.87;;
12312;SDS011;6220;53.580;9.758;2023-03-17T00:50:26;3.70;;;2.23;;
12312;SDS011;6220;53.580;9.758;2023-03-17T00:52:53;4.17;;;2.00;;
12312;SDS011;6220;53.580;9.758;2023-03-17T00:55:20;2.23;;;1.70;;
12312;SDS011;6220;53.580;9.758;2023-03-17T00:57:47;3.47;;;1.63;;
12312;SDS011;6220;53.580;9.758;2023-03-17T01:02:44;2.30;;;2.00;;
12312;SDS011;6220;53.580;9.758;2023-03-17T01:05:10;3.43;;;2.47;;
12312;SDS011;6220;53.580;9.758;2023-03-17T01:07:37;4.00;;;2.00;;
12312;SDS011;6220;53.580;9.758;2023-03-17T01:10:03;2.63;;;1.80;;
12312;SDS011;6220;53.580;9.758;2023-03-17T01:12:31;4.13;;;2.33;;
12312;SDS011;6220;53.580;9.758;2023-03-17T01:14:57;4.90;;;1.90;;
12312;SDS011;6220;53.580;9.758;2023-03-17T01:17:23;6.17;;;2.30;;
12312;SDS011;6220;53.580;9.758;2023-03-17T01:19:48;2.03;;;1.80;;
12312;SDS011;6220;53.580;9.758;2023-03-17T01:22:13;4.30;;;2.30;;
12312;SDS011;6220;53.580;9.758;2023-03-17T01:24:39;3.03;;;1.87;;
12312;SDS011;6220;53.580;9.758;2023-03-17T01:27:05;2.73;;;2.20;;
12312;SDS011;6220;53.580;9.758;2023-03-17T01:29:31;3.73;;;2.17;;
12312;SDS011;6220;53.580;9.758;2023-03-17T01:31:57;2.57;;;2.13;;
12312;SDS011;6220;53.580;9.758;2023-03-17T01:34:23;5.07;;;2.33;;
12312;SDS011;6220;53.580;9.758;2023-03-17T01:36:48;3.20;;;2.23;;
12312;SDS011;6220;53.580;9.758;2023-03-17T01:39:14;2.60;;;2.00;;
12312;SDS011;6220;53.580;9.758;2023-03-17T01:41:39;5.03;;;2.07;;
12312;SDS011;6220;53.580;9.758;2023-03-17T01:44:04;3.53;;;2.10;;
12312;SDS011;6220;53.580;9.758;2023-03-17T01:46:31;2.80;;;1.87;;
12312;SDS011;6220;53.580;9.758;2023-03-17T01:51:38;2.20;;;1.80;;
12312;SDS011;6220;53.580;9.758;2023-03-17T01:57:10;3.93;;;2.10;;
12312;SDS011;6220;53.580;9.758;2023-03-17T01:59:41;3.37;;;1.90;;
12312;SDS011;6220;53.580;9.758;2023-03-17T02:02:09;3.63;;;1.90;;
12312;SDS011;6220;53.580;9.758;2023-03-17T02:04:35;3.53;;;2.00;;
12312;SDS011;6220;53.580;9.758;2023-03-17T02:07:01;2.07;;;1.87;;
12312;SDS011;6220;53.580;9.758;2023-03-17T02:09:29;2.23;;;1.73;;
12312;SDS011;6220;53.580;9.758;2023-03-17T02:11:55;3.93;;;2.40;;
12312;SDS011;6220;53.580;9.758;2023-03-17T02:14:22;3.37;;;1.90;;
12312;SDS011;6220;53.580;9.758;2023-03-17T02:16:48;4.30;;;1.90;;
12312;SDS011;6220;53.580;9.758;2023-03-17T02:19:13;2.50;;;2.07;;
12312;SDS011;6220;53.580;9.758;2023-03-17T02:24:29;2.67;;;1.90;;
12312;SDS011;6220;53.580;9.758;2023-03-17T02:26:57;3.20;;;2.00;;
12312;SDS011;6220;53.580;9.758;2023-03-17T02:29:25;3.67;;;2.37;;
12312;SDS011;6220;53.580;9.758;2023-03-17T02:31:51;5.10;;;2.37;;
12312;SDS011;6220;53.580;9.758;2023-03-17T02:34:17;2.87;;;2.13;;
12312;SDS011;6220;53.580;9.758;2023-03-17T02:36:42;4.37;;;2.13;;
12312;SDS011;6220;53.580;9.758;2023-03-17T02:39:08;2.87;;;2.20;;
12312;SDS011;6220;53.580;9.758;2023-03-17T02:41:33;4.33;;;2.10;;
12312;SDS011;6220;53.580;9.758;2023-03-17T02:43:59;2.23;;;1.90;;
12312;SDS011;6220;53.580;9.758;2023-03-17T02:46:25;4.37;;;2.37;;
12312;SDS011;6220;53.580;9.758;2023-03-17T02:48:51;3.40;;;2.50;;
12312;SDS011;6220;53.580;9.758;2023-03-17T02:51:16;3.10;;;2.27;;
12312;SDS011;6220;53.580;9.758;2023-03-17T02:53:41;3.70;;;2.30;;
12312;SDS011;6220;53.580;9.758;2023-03-17T02:56:07;3.10;;;2.10;;
12312;SDS011;6220;53.580;9.758;2023-03-17T02:58:33;3.57;;;2.47;;
12312;SDS011;6220;53.580;9.758;2023-03-17T03:00:58;4.20;;;2.03;;
12312;SDS011;6220;53.580;9.758;2023-03-17T03:03:23;3.03;;;1.93;;
12312;SDS011;6220;53.580;9.758;2023-03-17T03:05:49;3.10;;;2.40;;
12312;SDS011;6220;53.580;9.758;2023-03-17T03:08:15;2.77;;;2.20;;
12312;SDS011;6220;53.580;9.758;2023-03-17T03:10:41;3.30;;;2.17;;
12312;SDS011;6220;53.580;9.758;2023-03-17T03:13:06;2.90;;;2.20;;
12312;SDS011;6220;53.580;9.758;2023-03-17T03:15:31;3.77;;;2.30;;
12312;SDS011;6220;53.580;9.758;2023-03-17T03:17:57;3.53;;;2.30;;
12312;SDS011;6220;53.580;9.758;2023-03-17T03:20:22;2.67;;;2.07;;
12312;SDS011;6220;53.580;9.758;2023-03-17T03:22:48;4.57;;;2.43;;
12312;SDS011;6220;53.580;9.758;2023-03-17T03:25:13;3.53;;;2.03;;
12312;SDS011;6220;53.580;9.758;2023-03-17T03:27:38;3.30;;;2.37;;
12312;SDS011;6220;53.580;9.758;2023-03-17T03:30:04;2.30;;;2.07;;
12312;SDS011;6220;53.580;9.758;2023-03-17T03:32:31;2.83;;;2.13;;
12312;SDS011;6220;53.580;9.758;2023-03-17T03:34:57;2.60;;;2.20;;
12312;SDS011;6220;53.580;9.758;2023-03-17T03:37:23;3.30;;;2.27;;
12312;SDS011;6220;53.580;9.758;2023-03-17T03:39:48;4.53;;;2.20;;
12312;SDS011;6220;53.580;9.758;2023-03-17T03:42:13;6.30;;;2.53;;
12312;SDS011;6220;53.580;9.758;2023-03-17T03:44:40;2.90;;;2.40;;
12312;SDS011;6220;53.580;9.758;2023-03-17T03:47:05;3.70;;;2.20;;
12312;SDS011;6220;53.580;9.758;2023-03-17T03:49:31;3.73;;;2.23;;
12312;SDS011;6220;53.580;9.758;2023-03-17T03:51:56;2.90;;;2.30;;
12312;SDS011;6220;53.580;9.758;2023-03-17T03:54:22;3.33;;;2.33;;
12312;SDS011;6220;53.580;9.758;2023-03-17T03:56:47;3.57;;;2.20;;
12312;SDS011;6220;53.580;9.758;2023-03-17T03:59:12;2.70;;;2.30;;
12312;SDS011;6220;53.580;9.758;2023-03-17T04:01:39;5.73;;;2.73;;
12312;SDS011;6220;53.580;9.758;2023-03-17T04:04:05;2.80;;;2.20;;
12312;SDS011;6220;53.580;9.758;2023-03-17T04:06:31;4.97;;;2.77;;
12312;SDS011;6220;53.580;9.758;2023-03-17T04:08:56;3.23;;;2.50;;
12312;SDS011;6220;53.580;9.758;2023-03-17T04:11:21;3.97;;;2.70;;
12312;SDS011;6220;53.580;9.758;2023-03-17T04:13:47;3.27;;;2.50;;
12312;SDS011;6220;53.580;9.758;2023-03-17T04:16:12;5.43;;;2.70;;
12312;SDS011;6220;53.580;9.758;2023-03-17T04:18:37;3.53;;;2.23;;
12312;SDS011;6220;53.580;9.758;2023-03-17T04:21:03;3.83;;;2.60;;
12312;SDS011;6220;53.580;9.758;2023-03-17T04:23:28;5.20;;;2.60;;
12312;SDS011;6220;53.580;9.758;2023-03-17T04:25:55;4.80;;;2.67;;
12312;SDS011;6220;53.580;9.758;2023-03-17T04:28:21;4.47;;;2.53;;
12312;SDS011;6220;53.580;9.758;2023-03-17T04:30:46;3.73;;;2.50;;
12312;SDS011;6220;53.580;9.758;2023-03-17T04:33:12;3.83;;;2.60;;
12312;SDS011;6220;53.580;9.758;2023-03-17T04:35:37;3.67;;;2.70;;
12312;SDS011;6220;53.580;9.758;2023-03-17T04:38:03;2.90;;;2.40;;
12312;SDS011;6220;53.580;9.758;2023-03-17T04:40:28;4.23;;;2.90;;
12312;SDS011;6220;53.580;9.758;2023-03-17T04:42:53;4.33;;;2.77;;
12312;SDS011;6220;53.580;9.758;2023-03-17T04:45:19;3.60;;;2.63;;
12312;SDS011;6220;53.580;9.758;2023-03-17T04:47:44;4.10;;;3.00;;
12312;SDS011;6220;53.580;9.758;2023-03-17T04:50:10;4.90;;;2.90;;
12312;SDS011;6220;53.580;9.758;2023-03-17T04:52:36;4.23;;;2.60;;
12312;SDS011;6220;53.580;9.758;2023-03-17T04:55:01;4.50;;;2.70;;
12312;SDS011;6220;53.580;9.758;2023-03-17T04:57:27;5.33;;;2.87;;
12312;SDS011;6220;53.580;9.758;2023-03-17T04:59:52;5.40;;;2.80;;
12312;SDS011;6220;53.580;9.758;2023-03-17T05:02:18;4.47;;;3.10;;
12312;SDS011;6220;53.580;9.758;2023-03-17T05:04:43;5.50;;;3.10;;
12312;SDS011;6220;53.580;9.758;2023-03-17T05:07:09;3.27;;;2.77;;
12312;SDS011;6220;53.580;9.758;2023-03-17T05:09:38;3.33;;;2.67;;
12312;SDS011;6220;53.580;9.758;2023-03-17T05:12:03;4.83;;;2.77;;
12312;SDS011;6220;53.580;9.758;2023-03-17T05:14:29;4.50;;;3.30;;
12312;SDS011;6220;53.580;9.758;2023-03-17T05:16:54;3.43;;;3.00;;
12312;SDS011;6220;53.580;9.758;2023-03-17T05:19:20;5.77;;;2.80;;
12312;SDS011;6220;53.580;9.758;2023-03-17T05:21:45;4.70;;;2.93;;
12312;SDS011;6220;53.580;9.758;2023-03-17T05:24:11;4.57;;;2.87;;
12312;SDS011;6220;53.580;9.758;2023-03-17T05:26:37;5.47;;;2.93;;
12312;SDS011;6220;53.580;9.758;2023-03-17T05:29:02;5.63;;;2.83;;
12312;SDS011;6220;53.580;9.758;2023-03-17T05:31:28;5.73;;;3.13;;
12312;SDS011;6220;53.580;9.758;2023-03-17T05:33:54;7.77;;;3.20;;
12312;SDS011;6220;53.580;9.758;2023-03-17T05:36:20;4.97;;;3.10;;
12312;SDS011;6220;53.580;9.758;2023-03-17T05:38:45;4.37;;;2.83;;
12312;SDS011;6220;53.580;9.758;2023-03-17T05:41:11;5.07;;;3.20;;
12312;SDS011;6220;53.580;9.758;2023-03-17T05:43:36;3.67;;;2.90;;
12312;SDS011;6220;53.580;9.758;2023-03-17T05:46:02;5.70;;;2.90;;
12312;SDS011;6220;53.580;9.758;2023-03-17T05:48:28;3.27;;;2.97;;
12312;SDS011;6220;53.580;9.758;2023-03-17T05:50:53;5.00;;;2.93;;
12312;SDS011;6220;53.580;9.758;2023-03-17T05:53:19;5.10;;;3.20;;
12312;SDS011;6220;53.580;9.758;2023-03-17T05:55:44;7.00;;;3.90;;
12312;SDS011;6220;53.580;9.758;2023-03-17T05:58:10;4.00;;;2.97;;
12312;SDS011;6220;53.580;9.758;2023-03-17T06:00:36;4.67;;;3.13;;
12312;SDS011;6220;53.580;9.758;2023-03-17T06:03:02;4.20;;;3.20;;
12312;SDS011;6220;53.580;9.758;2023-03-17T06:05:29;3.77;;;2.70;;
12312;SDS011;6220;53.580;9.758;2023-03-17T06:07:54;5.70;;;3.07;;
12312;SDS011;6220;53.580;9.758;2023-03-17T06:10:20;6.40;;;3.30;;
12312;SDS011;6220;53.580;9.758;2023-03-17T06:12:45;6.37;;;3.23;;
12312;SDS011;6220;53.580;9.758;2023-03-17T06:15:11;4.60;;;3.23;;
12312;SDS011;6220;53.580;9.758;2023-03-17T06:17:36;4.50;;;3.03;;
12312;SDS011;6220;53.580;9.758;2023-03-17T06:20:03;6.30;;;3.50;;
12312;SDS011;6220;53.580;9.758;2023-03-17T06:22:29;3.57;;;2.90;;
12312;SDS011;6220;53.580;9.758;2023-03-17T06:24:54;3.70;;;2.87;;
12312;SDS011;6220;53.580;9.758;2023-03-17T06:27:20;4.40;;;3.27;;
12312;SDS011;6220;53.580;9.758;2023-03-17T06:29:46;4.97;;;3.37;;
12312;SDS011;6220;53.580;9.758;2023-03-17T06:32:11;4.30;;;3.20;;
12312;SDS011;6220;53.580;9.758;2023-03-17T06:34:36;3.90;;;3.13;;
12312;SDS011;6220;53.580;9.758;2023-03-17T06:37:02;6.47;;;3.20;;
12312;SDS011;6220;53.580;9.758;2023-03-17T06:39:27;5.07;;;3.47;;
12312;SDS011;6220;53.580;9.758;2023-03-17T06:41:52;3.47;;;2.90;;
12312;SDS011;6220;53.580;9.758;2023-03-17T06:44:18;4.23;;;3.43;;
12312;SDS011;6220;53.580;9.758;2023-03-17T06:46:43;4.60;;;3.33;;
12312;SDS011;6220;53.580;9.758;2023-03-17T06:49:08;5.33;;;3.40;;
12312;SDS011;6220;53.580;9.758;2023-03-17T06:51:37;3.77;;;3.20;;
12312;SDS011;6220;53.580;9.758;2023-03-17T06:54:03;4.73;;;3.47;;
12312;SDS011;6220;53.580;9.758;2023-03-17T06:56:28;8.03;;;3.57;;
12312;SDS011;6220;53.580;9.758;2023-03-17T06:58:54;4.50;;;3.33;;
12312;SDS011;6220;53.580;9.758;2023-03-17T07:01:19;7.67;;;3.30;;
12312;SDS011;6220;53.580;9.758;2023-03-17T07:03:44;6.93;;;3.97;;
12312;SDS011;6220;53.580;9.758;2023-03-17T07:06:09;3.93;;;3.10;;
12312;SDS011;6220;53.580;9.758;2023-03-17T07:08:35;5.20;;;3.30;;
12312;SDS011;6220;53.580;9.758;2023-03-17T07:11:00;5.67;;;3.43;;
12312;SDS011;6220;53.580;9.758;2023-03-17T07:13:28;4.07;;;3.13;;
12312;SDS011;6220;53.580;9.758;2023-03-17T07:15:55;8.77;;;3.80;;
12312;SDS011;6220;53.580;9.758;2023-03-17T07:18:21;4.57;;;3.37;;
12312;SDS011;6220;53.580;9.758;2023-03-17T07:20:46;7.73;;;3.50;;
12312;SDS011;6220;53.580;9.758;2023-03-17T07:23:17;4.93;;;3.47;;
12312;SDS011;6220;53.580;9.758;2023-03-17T07:25:44;4.50;;;3.47;;
12312;SDS011;6220;53.580;9.758;2023-03-17T07:28:11;4.77;;;3.40;;
12312;SDS011;6220;53.580;9.758;2023-03-17T07:30:36;5.90;;;3.47;;
12312;SDS011;6220;53.580;9.758;2023-03-17T07:33:02;6.10;;;3.43;;
12312;SDS011;6220;53.580;9.758;2023-03-17T07:35:28;8.17;;;3.73;;
12312;SDS011;6220;53.580;9.758;2023-03-17T07:37:55;6.10;;;3.63;;
12312;SDS011;6220;53.580;9.758;2023-03-17T07:40:20;3.97;;;3.20;;
12312;SDS011;6220;53.580;9.758;2023-03-17T07:42:45;6.03;;;3.70;;
12312;SDS011;6220;53.580;9.758;2023-03-17T07:45:11;5.63;;;3.83;;
12312;SDS011;6220;53.580;9.758;2023-03-17T07:47:37;5.50;;;3.67;;
12312;SDS011;6220;53.580;9.758;2023-03-17T07:50:03;4.13;;;3.60;;
12312;SDS011;6220;53.580;9.758;2023-03-17T07:52:29;5.67;;;3.63;;
12312;SDS011;6220;53.580;9.758;2023-03-17T07:54:55;4.50;;;3.30;;
12312;SDS011;6220;53.580;9.758;2023-03-17T07:57:22;5.37;;;3.43;;
12312;SDS011;6220;53.580;9.758;2023-03-17T07:59:47;5.07;;;3.50;;
12312;SDS011;6220;53.580;9.758;2023-03-17T08:02:14;6.83;;;3.67;;
12312;SDS011;6220;53.580;9.758;2023-03-17T08:04:40;6.27;;;3.70;;
12312;SDS011;6220;53.580;9.758;2023-03-17T08:07:05;9.77;;;3.50;;
12312;SDS011;6220;53.580;9.758;2023-03-17T08:09:31;5.00;;;3.23;;
12312;SDS011;6220;53.580;9.758;2023-03-17T08:11:56;3.67;;;3.13;;
12312;SDS011;6220;53.580;9.758;2023-03-17T08:14:22;4.43;;;3.37;;
12312;SDS011;6220;53.580;9.758;2023-03-17T08:16:47;4.67;;;3.20;;
12312;SDS011;6220;53.580;9.758;2023-03-17T08:19:12;6.33;;;3.50;;
12312;SDS011;6220;53.580;9.758;2023-03-17T08:21:38;5.13;;;3.40;;
12312;SDS011;6220;53.580;9.758;2023-03-17T08:24:03;3.60;;;2.87;;
12312;SDS011;6220;53.580;9.758;2023-03-17T08:26:29;5.07;;;3.43;;
12312;SDS011;6220;53.580;9.758;2023-03-17T08:28:55;6.00;;;3.37;;
12312;SDS011;6220;53.580;9.758;2023-03-17T08:31:21;4.13;;;3.27;;
12312;SDS011;6220;53.580;9.758;2023-03-17T08:33:48;5.87;;;3.10;;
12312;SDS011;6220;53.580;9.758;2023-03-17T08:36:15;5.80;;;3.53;;
12312;SDS011;6220;53.580;9.758;2023-03-17T08:38:41;6.83;;;3.80;;
12312;SDS011;6220;53.580;9.758;2023-03-17T08:41:09;4.73;;;3.30;;
12312;SDS011;6220;53.580;9.758;2023-03-17T08:43:36;4.50;;;2.90;;
12312;SDS011;6220;53.580;9.758;2023-03-17T08:46:04;4.50;;;3.30;;
12312;SDS011;6220;53.580;9.758;2023-03-17T08:48:32;4.57;;;3.03;;
12312;SDS011;6220;53.580;9.758;2023-03-17T08:50:58;4.60;;;3.10;;
12312;SDS011;6220;53.580;9.758;2023-03-17T08:53:23;4.83;;;3.13;;
12312;SDS011;6220;53.580;9.758;2023-03-17T08:55:50;4.17;;;3.10;;
12312;SDS011;6220;53.580;9.758;2023-03-17T08:58:15;5.07;;;3.40;;
12312;SDS011;6220;53.580;9.758;2023-03-17T09:00:41;5.27;;;3.23;;
12312;SDS011;6220;53.580;9.758;2023-03-17T09:03:07;4.77;;;3.10;;
12312;SDS011;6220;53.580;9.758;2023-03-17T09:05:32;3.57;;;3.10;;
12312;SDS011;6220;53.580;9.758;2023-03-17T09:07:57;4.47;;;2.70;;
12312;SDS011;6220;53.580;9.758;2023-03-17T09:10:23;5.70;;;3.20;;
12312;SDS011;6220;53.580;9.758;2023-03-17T09:12:49;2.90;;;2.60;;
12312;SDS011;6220;53.580;9.758;2023-03-17T09:15:15;3.43;;;2.70;;
12312;SDS011;6220;53.580;9.758;2023-03-17T09:17:41;3.23;;;2.80;;
12312;SDS011;6220;53.580;9.758;2023-03-17T09:20:08;3.80;;;2.73;;
12312;SDS011;6220;53.580;9.758;2023-03-17T09:22:35;2.60;;;2.40;;
12312;SDS011;6220;53.580;9.758;2023-03-17T09:25:01;4.97;;;3.07;;
12312;SDS011;6220;53.580;9.758;2023-03-17T09:27:27;6.17;;;2.90;;
12312;SDS011;6220;53.580;9.758;2023-03-17T09:29:52;4.10;;;2.80;;
12312;SDS011;6220;53.580;9.758;2023-03-17T09:32:18;3.17;;;2.87;;
12312;SDS011;6220;53.580;9.758;2023-03-17T09:34:43;3.00;;;2.60;;
12312;SDS011;6220;53.580;9.758;2023-03-17T09:37:08;3.37;;;2.60;;
12312;SDS011;6220;53.580;9.758;2023-03-17T09:39:34;4.70;;;2.83;;
12312;SDS011;6220;53.580;9.758;2023-03-17T09:42:04;3.00;;;2.70;;
12312;SDS011;6220;53.580;9.758;2023-03-17T09:44:40;3.10;;;2.80;;
12312;SDS011;6220;53.580;9.758;2023-03-17T09:47:16;3.40;;;2.77;;
12312;SDS011;6220;53.580;9.758;2023-03-17T09:49:45;3.73;;;2.90;;
12312;SDS011;6220;53.580;9.758;2023-03-17T09:52:13;4.43;;;3.33;;
12312;SDS011;6220;53.580;9.758;2023-03-17T09:54:40;3.77;;;3.17;;
12312;SDS011;6220;53.580;9.758;2023-03-17T09:57:12;4.83;;;3.00;;
12312;SDS011;6220;53.580;9.758;2023-03-17T09:59:43;3.63;;;3.27;;
12312;SDS011;6220;53.580;9.758;2023-03-17T10:04:46;5.17;;;3.67;;
12312;SDS011;6220;53.580;9.758;2023-03-17T10:07:13;4.40;;;3.27;;
12312;SDS011;6220;53.580;9.758;2023-03-17T10:09:46;4.07;;;3.07;;
12312;SDS011;6220;53.580;9.758;2023-03-17T10:12:35;4.47;;;3.00;;
12312;SDS011;6220;53.580;9.758;2023-03-17T10:15:12;4.50;;;2.97;;
12312;SDS011;6220;53.580;9.758;2023-03-17T10:17:40;4.57;;;2.80;;
12312;SDS011;6220;53.580;9.758;2023-03-17T10:20:16;3.77;;;2.60;;
12312;SDS011;6220;53.580;9.758;2023-03-17T10:22:46;3.90;;;3.20;;
12312;SDS011;6220;53.580;9.758;2023-03-17T10:27:52;4.20;;;2.73;;
12312;SDS011;6220;53.580;9.758;2023-03-17T10:30:21;3.60;;;2.50;;
12312;SDS011;6220;53.580;9.758;2023-03-17T10:32:47;5.27;;;2.97;;
12312;SDS011;6220;53.580;9.758;2023-03-17T10:35:13;4.30;;;2.70;;
12312;SDS011;6220;53.580;9.758;2023-03-17T10:37:40;5.33;;;3.03;;
12312;SDS011;6220;53.580;9.758;2023-03-17T10:40:07;4.17;;;2.97;;
12312;SDS011;6220;53.580;9.758;2023-03-17T10:42:54;3.90;;;2.90;;
12312;SDS011;6220;53.580;9.758;2023-03-17T10:45:30;3.90;;;2.90;;
12312;SDS011;6220;53.580;9.758;2023-03-17T10:47:57;3.83;;;2.73;;
12312;SDS011;6220;53.580;9.758;2023-03-17T10:50:26;3.17;;;2.73;;
12312;SDS011;6220;53.580;9.758;2023-03-17T10:55:30;5.93;;;2.97;;
12312;SDS011;6220;53.580;9.758;2023-03-17T10:58:04;3.73;;;2.67;;
12312;SDS011;6220;53.580;9.758;2023-03-17T11:00:33;3.80;;;2.90;;
12312;SDS011;6220;53.580;9.758;2023-03-17T11:03:01;2.90;;;2.70;;
12312;SDS011;6220;53.580;9.758;2023-03-17T11:05:28;4.57;;;2.97;;
12312;SDS011;6220;53.580;9.758;2023-03-17T11:07:59;3.83;;;3.00;;
12312;SDS011;6220;53.580;9.758;2023-03-17T11:10:38;3.63;;;2.93;;
12312;SDS011;6220;53.580;9.758;2023-03-17T11:13:04;4.57;;;3.17;;
12312;SDS011;6220;53.580;9.758;2023-03-17T11:15:31;3.63;;;3.20;;
12312;SDS011;6220;53.580;9.758;2023-03-17T11:18:02;4.40;;;3.03;;
12312;SDS011;6220;53.580;9.758;2023-03-17T11:20:39;3.93;;;2.90;;
12312;SDS011;6220;53.580;9.758;2023-03-17T11:23:21;4.53;;;2.87;;
12312;SDS011;6220;53.580;9.758;2023-03-17T11:26:00;3.10;;;2.70;;
12312;SDS011;6220;53.580;9.758;2023-03-17T11:29:11;3.33;;;2.73;;
12312;SDS011;6220;53.580;9.758;2023-03-17T11:40:18;4.17;;;3.10;;
12312;SDS011;6220;53.580;9.758;2023-03-17T11:43:01;4.83;;;3.13;;
12312;SDS011;6220;53.580;9.758;2023-03-17T11:56:47;3.50;;;3.20;;
12312;SDS011;6220;53.580;9.758;2023-03-17T11:59:29;4.57;;;3.30;;
12312;SDS011;6220;53.580;9.758;2023-03-17T12:04:42;4.43;;;3.30;;
12312;SDS011;6220;53.580;9.758;2023-03-17T12:07:16;3.53;;;2.90;;
12312;SDS011;6220;53.580;9.758;2023-03-17T12:09:46;3.43;;;3.13;;
12312;SDS011;6220;53.580;9.758;2023-03-17T12:12:20;3.60;;;3.30;;
12312;SDS011;6220;53.580;9.758;2023-03-17T12:14:51;5.33;;;3.10;;
12312;SDS011;6220;53.580;9.758;2023-03-17T12:17:22;5.50;;;4.13;;
12312;SDS011;6220;53.580;9.758;2023-03-17T12:22:28;3.73;;;3.00;;
12312;SDS011;6220;53.580;9.758;2023-03-17T12:27:33;4.83;;;3.23;;
12312;SDS011;6220;53.580;9.758;2023-03-17T12:30:14;4.87;;;3.17;;
12312;SDS011;6220;53.580;9.758;2023-03-17T12:32:48;3.57;;;2.70;;
12312;SDS011;6220;53.580;9.758;2023-03-17T12:35:27;3.23;;;2.90;;
12312;SDS011;6220;53.580;9.758;2023-03-17T12:37:53;4.20;;;3.10;;
12312;SDS011;6220;53.580;9.758;2023-03-17T12:40:22;5.07;;;3.07;;
12312;SDS011;6220;53.580;9.758;2023-03-17T12:48:33;3.00;;;2.70;;
12312;SDS011;6220;53.580;9.758;2023-03-17T12:53:57;3.47;;;2.90;;
12312;SDS011;6220;53.580;9.758;2023-03-17T12:56:33;4.40;;;3.00;;
12312;SDS011;6220;53.580;9.758;2023-03-17T12:59:04;5.03;;;3.07;;
12312;SDS011;6220;53.580;9.758;2023-03-17T13:01:36;3.50;;;2.77;;
12312;SDS011;6220;53.580;9.758;2023-03-17T13:04:14;3.20;;;2.90;;
12312;SDS011;6220;53.580;9.758;2023-03-17T13:07:05;4.30;;;3.60;;
12312;SDS011;6220;53.580;9.758;2023-03-17T13:09:40;9.37;;;6.77;;
12312;SDS011;6220;53.580;9.758;2023-03-17T13:15:24;3.77;;;2.87;;
12312;SDS011;6220;53.580;9.758;2023-03-17T13:20:40;6.13;;;3.00;;
12312;SDS011;6220;53.580;9.758;2023-03-17T13:35:38;4.33;;;3.13;;
12312;SDS011;6220;53.580;9.758;2023-03-17T13:49:01;5.97;;;2.90;;
12312;SDS011;6220;53.580;9.758;2023-03-17T13:51:40;3.23;;;2.93;;
12312;SDS011;6220;53.580;9.758;2023-03-17T13:54:08;3.93;;;3.40;;
12312;SDS011;6220;53.580;9.758;2023-03-17T13:59:19;4.47;;;3.07;;
12312;SDS011;6220;53.580;9.758;2023-03-17T14:07:17;4.73;;;3.30;;
12312;SDS011;6220;53.580;9.758;2023-03-17T14:09:45;6.07;;;3.63;;
12312;SDS011;6220;53.580;9.758;2023-03-17T14:12:16;7.90;;;3.77;;
12312;SDS011;6220;53.580;9.758;2023-03-17T14:17:29;5.50;;;3.50;;
12312;SDS011;6220;53.580;9.758;2023-03-17T14:20:05;4.67;;;3.70;;
12312;SDS011;6220;53.580;9.758;2023-03-17T14:22:37;4.83;;;3.53;;
12312;SDS011;6220;53.580;9.758;2023-03-17T14:25:12;4.37;;;3.37;;
12312;SDS011;6220;53.580;9.758;2023-03-17T14:27:41;4.23;;;3.60;;
12312;SDS011;6220;53.580;9.758;2023-03-17T14:30:11;5.00;;;3.53;;
12312;SDS011;6220;53.580;9.758;2023-03-17T14:32:44;4.00;;;3.60;;
12312;SDS011;6220;53.580;9.758;2023-03-17T14:35:12;5.73;;;3.60;;
12312;SDS011;6220;53.580;9.758;2023-03-17T14:37:37;5.00;;;3.73;;
12312;SDS011;6220;53.580;9.758;2023-03-17T14:40:16;5.33;;;3.33;;
12312;SDS011;6220;53.580;9.758;2023-03-17T14:42:43;4.53;;;3.60;;
12312;SDS011;6220;53.580;9.758;2023-03-17T14:45:18;7.63;;;3.80;;
12312;SDS011;6220;53.580;9.758;2023-03-17T14:47:45;3.97;;;3.00;;
12312;SDS011;6220;53.580;9.758;2023-03-17T14:50:14;5.83;;;3.83;;
12312;SDS011;6220;53.580;9.758;2023-03-17T14:52:49;5.13;;;3.50;;
12312;SDS011;6220;53.580;9.758;2023-03-17T14:55:15;4.27;;;3.47;;
12312;SDS011;6220;53.580;9.758;2023-03-17T14:57:41;4.60;;;3.47;;
12312;SDS011;6220;53.580;9.758;2023-03-17T15:02:56;4.93;;;3.23;;
12312;SDS011;6220;53.580;9.758;2023-03-17T15:05:25;4.53;;;3.03;;
12312;SDS011;6220;53.580;9.758;2023-03-17T15:07:53;5.63;;;3.10;;
12312;SDS011;6220;53.580;9.758;2023-03-17T15:10:24;3.53;;;2.60;;
12312;SDS011;6220;53.580;9.758;2023-03-17T15:13:01;3.87;;;2.90;;
12312;SDS011;6220;53.580;9.758;2023-03-17T15:15:29;3.53;;;2.83;;
12312;SDS011;6220;53.580;9.758;2023-03-17T15:17:56;4.97;;;2.97;;
12312;SDS011;6220;53.580;9.758;2023-03-17T15:20:23;3.33;;;2.37;;
12312;SDS011;6220;53.580;9.758;2023-03-17T15:22:56;4.97;;;2.87;;
12312;SDS011;6220;53.580;9.758;2023-03-17T15:25:31;3.47;;;3.13;;
12312;SDS011;6220;53.580;9.758;2023-03-17T15:27:56;4.07;;;2.70;;
12312;SDS011;6220;53.580;9.758;2023-03-17T15:30:22;4.10;;;3.13;;
12312;SDS011;6220;53.580;9.758;2023-03-17T15:32:56;2.90;;;2.60;;
12312;SDS011;6220;53.580;9.758;2023-03-17T15:35:22;4.83;;;2.80;;
12312;SDS011;6220;53.580;9.758;2023-03-17T15:37:48;4.23;;;2.77;;
12312;SDS011;6220;53.580;9.758;2023-03-17T15:40:13;4.00;;;2.50;;
12312;SDS011;6220;53.580;9.758;2023-03-17T15:42:39;3.53;;;2.73;;
12312;SDS011;6220;53.580;9.758;2023-03-17T15:45:05;5.17;;;3.27;;
12312;SDS011;6220;53.580;9.758;2023-03-17T15:47:32;3.53;;;3.00;;
12312;SDS011;6220;53.580;9.758;2023-03-17T15:50:01;4.00;;;2.90;;
12312;SDS011;6220;53.580;9.758;2023-03-17T15:52:37;3.50;;;2.60;;
12312;SDS011;6220;53.580;9.758;2023-03-17T15:55:05;3.67;;;2.60;;
12312;SDS011;6220;53.580;9.758;2023-03-17T15:57:33;2.97;;;2.37;;
12312;SDS011;6220;53.580;9.758;2023-03-17T15:59:58;3.37;;;2.00;;
12312;SDS011;6220;53.580;9.758;2023-03-17T16:02:25;3.10;;;2.30;;
12312;SDS011;6220;53.580;9.758;2023-03-17T16:04:58;4.07;;;2.50;;
12312;SDS011;6220;53.580;9.758;2023-03-17T16:07:25;2.97;;;2.10;;
12312;SDS011;6220;53.580;9.758;2023-03-17T16:09:51;3.07;;;2.40;;
12312;SDS011;6220;53.580;9.758;2023-03-17T16:12:16;2.63;;;2.30;;
12312;SDS011;6220;53.580;9.758;2023-03-17T16:14:42;4.10;;;2.10;;
12312;SDS011;6220;53.580;9.758;2023-03-17T16:17:13;3.37;;;2.43;;
12312;SDS011;6220;53.580;9.758;2023-03-17T16:19:42;2.70;;;1.97;;
12312;SDS011;6220;53.580;9.758;2023-03-17T16:24:56;4.17;;;1.70;;
12312;SDS011;6220;53.580;9.758;2023-03-17T16:27:22;3.97;;;1.97;;
12312;SDS011;6220;53.580;9.758;2023-03-17T16:29:49;4.80;;;2.20;;
12312;SDS011;6220;53.580;9.758;2023-03-17T16:32:14;3.37;;;2.07;;
12312;SDS011;6220;53.580;9.758;2023-03-17T16:34:40;3.23;;;1.87;;
12312;SDS011;6220;53.580;9.758;2023-03-17T16:37:07;3.20;;;2.30;;
12312;SDS011;6220;53.580;9.758;2023-03-17T16:39:37;2.87;;;2.03;;
12312;SDS011;6220;53.580;9.758;2023-03-17T16:42:03;3.77;;;2.20;;
12312;SDS011;6220;53.580;9.758;2023-03-17T16:44:29;3.73;;;2.70;;